Elmendorf AFB, Alaska
Current Conditions -  °F | °C
As of 8:58 AM on Thursday 27 Nov 2014 (Local Time) from PAED Reporting Station
Haze Haze  
Wind Chill: 19°   Ceiling: 800
Heat Index: 19°   Visibility: 5mi
Dew Point: 17°   Wind: 1mph
Humidity: 93%   Direction: 90°E
Pressure: 30.21"   Gusts: NA
Location:  61.24°N, 149.82°W
Report Text: PAED 271758Z 09001KT 5SM BR SCT002 OVC008 M07/M08 A3021 RMK AO2A VIS NE 2 1/2 SLP229 T10721082 11071 21118 57002
Loading
Personal Weather Stations






























Interactive Weather Map New forecast layout! Learn more

10-Day Weather Forecast

Advertisements
Track Severe Weather on mobile